createdAt,value
2022-12-25T00:01:23.519Z,8.70
2022-12-25T00:03:51.248Z,8.70
2022-12-25T00:06:18.959Z,8.70
2022-12-25T00:08:45.641Z,8.70
2022-12-25T00:11:19.475Z,8.70
2022-12-25T00:13:47.090Z,8.70
2022-12-25T00:16:18.053Z,8.70
2022-12-25T00:18:45.402Z,8.70
2022-12-25T00:21:12.710Z,8.80
2022-12-25T00:23:40.047Z,8.80
2022-12-25T00:26:08.718Z,8.80
2022-12-25T00:28:36.020Z,8.80
2022-12-25T00:31:17.225Z,8.80
2022-12-25T00:33:45.775Z,8.80
2022-12-25T00:36:14.071Z,8.90
2022-12-25T00:38:41.271Z,9.00
2022-12-25T00:41:13.041Z,9.00
2022-12-25T00:43:41.888Z,9.00
2022-12-25T00:46:10.319Z,9.00
2022-12-25T00:48:37.179Z,9.00
2022-12-25T00:51:07.440Z,9.00
2022-12-25T00:53:34.083Z,9.10
2022-12-25T00:56:04.731Z,9.10
2022-12-25T00:58:32.707Z,9.00
2022-12-25T01:00:59.729Z,9.00
2022-12-25T01:03:26.664Z,9.00
2022-12-25T01:06:04.007Z,9.00
2022-12-25T01:08:33.957Z,9.00
2022-12-25T01:11:04.420Z,9.10
2022-12-25T01:13:32.234Z,9.20
2022-12-25T01:15:58.897Z,9.10
2022-12-25T01:18:25.897Z,9.20
2022-12-25T01:20:52.540Z,9.20
2022-12-25T01:23:19.154Z,9.30
2022-12-25T01:25:45.792Z,9.30
2022-12-25T01:28:12.855Z,9.30
2022-12-25T01:30:39.765Z,9.30
2022-12-25T01:33:06.368Z,9.40
2022-12-25T01:35:32.961Z,9.40
2022-12-25T01:37:59.583Z,9.40
2022-12-25T01:40:26.221Z,9.40
2022-12-25T01:42:52.825Z,9.40
2022-12-25T01:45:33.741Z,9.40
2022-12-25T01:48:08.282Z,9.40
2022-12-25T01:50:37.897Z,9.40
2022-12-25T01:53:05.506Z,9.50
2022-12-25T01:55:32.960Z,9.50
2022-12-25T01:57:59.605Z,9.60
2022-12-25T02:00:26.274Z,9.60
2022-12-25T02:02:53.046Z,9.50
2022-12-25T02:05:31.959Z,9.60
2022-12-25T02:08:04.089Z,9.60
2022-12-25T02:10:30.707Z,9.50
2022-12-25T02:12:57.664Z,9.50
2022-12-25T02:15:34.152Z,9.60
2022-12-25T02:18:37.278Z,9.60
2022-12-25T02:21:45.767Z,9.60
2022-12-25T02:24:34.245Z,9.60
2022-12-25T02:27:07.309Z,9.60
2022-12-25T02:29:59.806Z,9.50
2022-12-25T02:32:43.084Z,9.50
2022-12-25T02:35:21.888Z,9.50
2022-12-25T02:38:06.118Z,9.50
2022-12-25T02:40:42.041Z,9.50
2022-12-25T02:43:34.365Z,9.50
2022-12-25T02:46:24.544Z,9.50
2022-12-25T02:49:15.839Z,9.50
2022-12-25T02:52:06.970Z,9.50
2022-12-25T02:55:07.378Z,9.50
2022-12-25T02:58:14.910Z,9.50
2022-12-25T03:01:04.424Z,9.40
2022-12-25T03:03:52.995Z,9.40
2022-12-25T03:06:40.840Z,9.50
2022-12-25T03:09:33.376Z,9.50
2022-12-25T03:12:14.278Z,9.50
2022-12-25T03:14:59.604Z,9.60
2022-12-25T03:17:26.557Z,9.70
2022-12-25T03:20:11.634Z,9.70
2022-12-25T03:23:01.105Z,9.70
2022-12-25T03:25:47.134Z,9.70
2022-12-25T03:28:14.269Z,9.70
2022-12-25T03:31:13.047Z,9.70
2022-12-25T03:34:15.303Z,9.70
2022-12-25T03:37:13.493Z,9.70
2022-12-25T03:39:55.172Z,9.70
2022-12-25T03:43:01.805Z,9.60
2022-12-25T03:45:57.757Z,9.60
2022-12-25T03:48:45.167Z,9.60
2022-12-25T03:51:33.926Z,9.70
2022-12-25T03:54:23.239Z,9.70
2022-12-25T03:57:08.841Z,9.80
2022-12-25T03:59:54.342Z,9.80
2022-12-25T04:02:40.217Z,9.80
2022-12-25T04:05:25.770Z,9.80
2022-12-25T04:08:11.186Z,9.80
2022-12-25T04:10:56.395Z,9.90
2022-12-25T04:13:41.799Z,9.80
2022-12-25T04:16:27.455Z,9.90
2022-12-25T04:19:12.547Z,9.90
2022-12-25T04:21:58.082Z,9.90
2022-12-25T04:24:43.314Z,9.80
2022-12-25T04:27:28.776Z,9.80
2022-12-25T04:30:14.191Z,9.80
2022-12-25T04:32:59.697Z,9.90
2022-12-25T04:35:45.657Z,9.80
2022-12-25T04:38:12.269Z,9.90
2022-12-25T04:40:38.871Z,9.90
2022-12-25T04:43:05.502Z,9.80
2022-12-25T04:45:32.132Z,9.80
2022-12-25T04:48:01.663Z,9.80
2022-12-25T04:50:28.284Z,9.80
2022-12-25T04:52:54.924Z,9.90
2022-12-25T04:55:21.690Z,9.90
2022-12-25T04:57:48.472Z,9.90
2022-12-25T05:00:15.440Z,10.00
2022-12-25T05:02:42.218Z,10.00
2022-12-25T05:05:09.107Z,10.00
2022-12-25T05:07:35.708Z,9.90
2022-12-25T05:10:02.339Z,9.90
2022-12-25T05:12:28.942Z,9.90
2022-12-25T05:14:55.533Z,9.90
2022-12-25T05:17:22.156Z,9.90
2022-12-25T05:19:48.750Z,9.90
2022-12-25T05:22:15.417Z,10.00
2022-12-25T05:24:42.034Z,10.00
2022-12-25T05:27:08.644Z,10.10
2022-12-25T05:29:35.264Z,10.10
2022-12-25T05:32:02.171Z,10.10
2022-12-25T05:34:28.783Z,10.10
2022-12-25T05:36:56.516Z,10.10
2022-12-25T05:39:23.499Z,10.10
2022-12-25T05:41:50.270Z,10.10
2022-12-25T05:44:17.135Z,10.10
2022-12-25T05:46:43.873Z,10.10
2022-12-25T05:49:10.529Z,10.10
2022-12-25T05:51:37.215Z,10.10
2022-12-25T05:54:04.106Z,10.10
2022-12-25T05:56:30.712Z,10.10
2022-12-25T05:58:57.316Z,10.10
2022-12-25T06:01:27.512Z,10.00
2022-12-25T06:03:54.492Z,9.90
2022-12-25T06:06:21.167Z,10.00
2022-12-25T06:08:47.780Z,10.00
2022-12-25T06:11:15.566Z,9.90
2022-12-25T06:13:42.385Z,9.90
2022-12-25T06:16:11.255Z,9.90
2022-12-25T06:18:40.877Z,9.90
2022-12-25T06:21:09.264Z,9.90
2022-12-25T06:23:37.344Z,10.00
2022-12-25T06:26:07.149Z,10.00
2022-12-25T06:28:34.141Z,10.00
2022-12-25T06:31:07.418Z,10.00
2022-12-25T06:33:34.113Z,10.00
2022-12-25T06:36:05.377Z,10.00
2022-12-25T06:38:31.993Z,10.00
2022-12-25T06:41:07.156Z,10.00
2022-12-25T06:43:34.233Z,10.00
2022-12-25T06:46:10.268Z,10.00
2022-12-25T06:48:38.793Z,10.00
2022-12-25T06:51:06.900Z,10.00
2022-12-25T06:53:39.825Z,10.00
2022-12-25T06:56:09.962Z,10.00
2022-12-25T06:58:36.572Z,10.00
2022-12-25T07:01:15.048Z,9.90
2022-12-25T07:03:43.895Z,10.00
2022-12-25T07:06:10.579Z,10.00
2022-12-25T07:08:37.344Z,9.90
2022-12-25T07:11:04.298Z,9.90
2022-12-25T07:13:30.896Z,10.00
2022-12-25T07:16:03.068Z,9.90
2022-12-25T07:18:31.169Z,9.90
2022-12-25T07:20:59.630Z,9.90
2022-12-25T07:23:26.972Z,10.00
2022-12-25T07:25:57.652Z,9.90
2022-12-25T07:28:24.812Z,9.90
2022-12-25T07:30:51.689Z,9.90
2022-12-25T07:33:19.111Z,9.90
2022-12-25T07:35:46.426Z,9.80
2022-12-25T07:38:13.141Z,9.80
2022-12-25T07:40:39.759Z,9.90
2022-12-25T07:43:06.402Z,9.80
2022-12-25T07:45:33.657Z,9.90
2022-12-25T07:48:05.260Z,9.80
2022-12-25T07:50:33.258Z,9.90
2022-12-25T07:52:59.953Z,9.90
2022-12-25T07:55:26.612Z,9.90
2022-12-25T07:57:53.305Z,9.90
2022-12-25T08:00:20.617Z,9.90
2022-12-25T08:02:50.399Z,10.00
2022-12-25T08:05:17.489Z,10.00
2022-12-25T08:07:44.152Z,10.00
2022-12-25T08:10:11.169Z,10.00
2022-12-25T08:12:37.769Z,10.00
2022-12-25T08:15:04.846Z,9.90
2022-12-25T08:17:31.522Z,9.90
2022-12-25T08:19:58.123Z,9.90
2022-12-25T08:22:24.731Z,9.90
2022-12-25T08:24:51.351Z,10.00
2022-12-25T08:27:18.191Z,9.90
2022-12-25T08:29:44.965Z,9.90
2022-12-25T08:32:11.794Z,10.00
2022-12-25T08:34:38.785Z,10.00
2022-12-25T08:37:05.446Z,10.00
2022-12-25T08:39:32.281Z,10.00
2022-12-25T08:41:58.888Z,10.10
2022-12-25T08:44:25.527Z,10.10
2022-12-25T08:46:52.146Z,10.10
2022-12-25T08:49:19.246Z,10.00
2022-12-25T08:51:45.961Z,10.10
2022-12-25T08:54:12.558Z,10.10
2022-12-25T08:56:39.217Z,10.10
2022-12-25T08:59:05.848Z,10.00
2022-12-25T09:01:32.524Z,10.00
2022-12-25T09:03:59.253Z,10.10
2022-12-25T09:06:25.849Z,10.10
2022-12-25T09:08:52.544Z,10.10
2022-12-25T09:11:20.271Z,10.10
2022-12-25T09:13:48.189Z,10.10
2022-12-25T09:16:18.725Z,10.20
2022-12-25T09:18:45.572Z,10.20
2022-12-25T09:21:14.277Z,10.10
2022-12-25T09:23:41.325Z,10.10
2022-12-25T09:26:12.425Z,10.00
2022-12-25T09:28:39.199Z,10.10
2022-12-25T09:31:06.275Z,10.10
2022-12-25T09:33:33.365Z,10.10
2022-12-25T09:36:02.592Z,10.10
2022-12-25T09:38:29.806Z,10.10
2022-12-25T09:41:04.983Z,10.10
2022-12-25T09:43:37.450Z,10.10
2022-12-25T09:46:07.415Z,10.10
2022-12-25T09:48:36.932Z,10.20
2022-12-25T09:51:13.274Z,10.20
2022-12-25T09:53:46.649Z,10.20
2022-12-25T09:56:25.368Z,10.20
2022-12-25T09:58:52.953Z,10.20
2022-12-25T10:01:44.619Z,10.20
2022-12-25T10:04:47.628Z,10.40
2022-12-25T10:07:38.323Z,10.40
2022-12-25T10:10:19.982Z,10.30
2022-12-25T10:13:36.967Z,10.30
2022-12-25T10:16:34.294Z,10.20
2022-12-25T10:19:17.482Z,10.20
2022-12-25T10:21:44.582Z,10.30
2022-12-25T10:24:32.829Z,10.30
2022-12-25T10:27:04.503Z,10.30
2022-12-25T10:29:34.708Z,10.30
2022-12-25T10:32:01.457Z,10.30
2022-12-25T10:34:28.774Z,10.30
2022-12-25T10:36:55.660Z,10.40
2022-12-25T10:39:26.518Z,10.30
2022-12-25T10:42:29.497Z,10.30
2022-12-25T10:45:01.674Z,10.30
2022-12-25T10:47:34.468Z,10.30
2022-12-25T10:50:24.102Z,10.30
2022-12-25T10:53:00.999Z,10.20
2022-12-25T10:55:29.493Z,10.20
2022-12-25T10:57:57.721Z,10.20
2022-12-25T11:00:30.624Z,10.20
2022-12-25T11:02:58.190Z,10.20
2022-12-25T11:05:33.527Z,10.30
2022-12-25T11:08:02.178Z,10.20
2022-12-25T11:10:33.988Z,10.20
2022-12-25T11:13:02.431Z,10.10
2022-12-25T11:15:40.290Z,10.20
2022-12-25T11:18:27.777Z,10.20
2022-12-25T11:21:00.122Z,10.30
2022-12-25T11:23:29.031Z,10.20
2022-12-25T11:26:04.468Z,10.30
2022-12-25T11:28:35.025Z,10.30
2022-12-25T11:31:08.296Z,10.30
2022-12-25T11:33:41.297Z,10.30
2022-12-25T11:36:43.105Z,10.30
2022-12-25T11:39:28.326Z,10.30
2022-12-25T11:42:21.530Z,10.40
2022-12-25T11:45:00.204Z,10.40
2022-12-25T11:47:46.996Z,10.40
2022-12-25T11:50:20.124Z,10.40
2022-12-25T11:52:48.029Z,10.40
2022-12-25T11:55:23.825Z,10.40
2022-12-25T11:57:55.030Z,10.40
2022-12-25T12:00:22.040Z,10.40
2022-12-25T12:03:00.168Z,10.40
2022-12-25T12:05:37.296Z,10.40
2022-12-25T12:08:05.542Z,10.40
2022-12-25T12:11:15.650Z,10.50
2022-12-25T12:14:11.418Z,10.50
2022-12-25T12:16:38.384Z,10.50
2022-12-25T12:19:13.899Z,10.50
2022-12-25T12:21:41.404Z,10.60
2022-12-25T12:24:20.522Z,10.60
2022-12-25T12:26:58.867Z,10.60
2022-12-25T12:29:29.113Z,10.70
2022-12-25T12:32:00.599Z,10.70
2022-12-25T12:34:33.016Z,10.70
2022-12-25T12:37:05.010Z,10.80
2022-12-25T12:39:36.394Z,10.80
2022-12-25T12:42:11.918Z,10.80
2022-12-25T12:44:38.734Z,10.80
2022-12-25T12:47:05.399Z,10.80
2022-12-25T12:49:33.549Z,10.80
2022-12-25T12:52:25.115Z,10.90
2022-12-25T12:54:57.003Z,10.90
2022-12-25T12:57:32.509Z,10.90
2022-12-25T13:00:08.551Z,10.90
2022-12-25T13:02:57.877Z,10.90
2022-12-25T13:05:37.917Z,11.00
2022-12-25T13:08:28.152Z,11.00
2022-12-25T13:11:26.561Z,11.00
2022-12-25T13:13:55.204Z,11.10
2022-12-25T13:16:28.004Z,11.00
2022-12-25T13:18:56.481Z,11.10
2022-12-25T13:21:26.136Z,11.10
2022-12-25T13:24:01.092Z,11.00
2022-12-25T13:26:28.741Z,11.00
2022-12-25T13:28:56.167Z,11.00
2022-12-25T13:31:25.917Z,11.00
2022-12-25T13:33:59.942Z,11.10
2022-12-25T13:36:28.529Z,11.10
2022-12-25T13:38:58.756Z,11.10
2022-12-25T13:41:53.142Z,11.10
2022-12-25T13:44:23.500Z,11.10
2022-12-25T13:46:50.310Z,11.10
2022-12-25T13:49:20.407Z,11.10
2022-12-25T13:51:48.363Z,11.20
2022-12-25T13:54:16.475Z,11.10
2022-12-25T13:56:54.283Z,11.20
2022-12-25T13:59:25.603Z,11.30
2022-12-25T14:01:53.982Z,11.20
2022-12-25T14:04:23.440Z,11.20
2022-12-25T14:06:51.780Z,11.30
2022-12-25T14:09:19.211Z,11.30
2022-12-25T14:11:50.150Z,11.30
2022-12-25T14:14:23.002Z,11.40
2022-12-25T14:16:53.234Z,11.40
2022-12-25T14:19:30.153Z,11.40
2022-12-25T14:22:18.770Z,11.40
2022-12-25T14:24:45.568Z,11.40
2022-12-25T14:27:20.288Z,11.30
2022-12-25T14:29:49.299Z,11.30
2022-12-25T14:32:21.970Z,11.30
2022-12-25T14:34:53.727Z,11.30
2022-12-25T14:37:23.733Z,11.40
2022-12-25T14:40:18.391Z,11.70
2022-12-25T14:42:57.965Z,11.80
2022-12-25T14:45:38.650Z,11.70
2022-12-25T14:48:24.600Z,11.60
2022-12-25T14:51:08.647Z,11.60
2022-12-25T14:53:47.329Z,11.60
2022-12-25T14:56:20.071Z,11.60
2022-12-25T14:58:53.568Z,11.60
2022-12-25T15:01:26.920Z,11.90
2022-12-25T15:04:05.359Z,11.70
2022-12-25T15:06:32.511Z,11.70
2022-12-25T15:09:06.355Z,11.60
2022-12-25T15:11:32.991Z,11.70
2022-12-25T15:13:59.648Z,11.70
2022-12-25T15:16:29.551Z,11.70
2022-12-25T15:18:56.581Z,11.60
2022-12-25T15:21:30.192Z,11.70
2022-12-25T15:23:58.851Z,11.60
2022-12-25T15:26:27.386Z,11.70
2022-12-25T15:28:54.057Z,11.70
2022-12-25T15:31:26.425Z,11.70
2022-12-25T15:33:55.245Z,11.70
2022-12-25T15:36:23.263Z,11.80
2022-12-25T15:38:50.268Z,11.90
2022-12-25T15:41:43.542Z,11.90
2022-12-25T15:44:11.820Z,11.90
2022-12-25T15:46:38.828Z,12.00
2022-12-25T15:49:05.635Z,12.00
2022-12-25T15:51:32.376Z,12.10
2022-12-25T15:53:59.515Z,12.10
2022-12-25T15:56:27.264Z,12.00
2022-12-25T15:58:53.944Z,12.00
2022-12-25T16:01:21.111Z,12.00
2022-12-25T16:03:48.108Z,12.10
2022-12-25T16:06:16.462Z,12.10
2022-12-25T16:08:43.454Z,12.10
2022-12-25T16:11:10.632Z,12.10
2022-12-25T16:13:37.539Z,12.10
2022-12-25T16:16:05.028Z,12.10
2022-12-25T16:18:32.080Z,12.10
2022-12-25T16:20:59.596Z,12.20
2022-12-25T16:23:26.392Z,12.30
2022-12-25T16:25:53.095Z,12.20
2022-12-25T16:28:19.757Z,12.10
2022-12-25T16:30:46.578Z,12.10
2022-12-25T16:33:13.346Z,12.10
2022-12-25T16:35:40.011Z,12.20
2022-12-25T16:38:06.920Z,12.20
2022-12-25T16:40:33.910Z,12.10
2022-12-25T16:43:00.552Z,12.20
2022-12-25T16:45:27.204Z,12.20
2022-12-25T16:47:53.892Z,12.20
2022-12-25T16:50:20.669Z,12.10
2022-12-25T16:52:47.294Z,12.10
2022-12-25T16:55:13.984Z,12.10
2022-12-25T16:57:40.585Z,12.10
2022-12-25T17:00:08.622Z,12.10
2022-12-25T17:02:35.336Z,12.10
2022-12-25T17:05:02.245Z,12.10
2022-12-25T17:07:28.852Z,12.10
2022-12-25T17:09:57.055Z,12.10
2022-12-25T17:12:23.725Z,12.10
2022-12-25T17:14:50.716Z,12.10
2022-12-25T17:17:18.446Z,12.10
2022-12-25T17:19:45.175Z,12.00
2022-12-25T17:22:11.909Z,12.10
2022-12-25T17:24:40.906Z,12.00
2022-12-25T17:27:09.137Z,12.00
2022-12-25T17:29:38.875Z,12.00
2022-12-25T17:32:07.841Z,12.00
2022-12-25T17:34:34.680Z,12.10
2022-12-25T17:37:01.321Z,12.10
2022-12-25T17:39:28.174Z,12.20
2022-12-25T17:41:55.079Z,12.20
2022-12-25T17:44:22.311Z,12.20
2022-12-25T17:46:49.799Z,12.10
2022-12-25T17:49:19.593Z,12.20
2022-12-25T17:51:46.865Z,12.20
2022-12-25T17:54:13.703Z,12.10
2022-12-25T17:56:40.373Z,12.20
2022-12-25T17:59:09.481Z,12.20
2022-12-25T18:01:38.500Z,12.30
2022-12-25T18:04:06.122Z,12.20
2022-12-25T18:06:35.669Z,12.20
2022-12-25T18:09:03.118Z,12.20
2022-12-25T18:11:32.983Z,12.20
2022-12-25T18:14:05.474Z,12.20
2022-12-25T18:16:35.252Z,12.20
2022-12-25T18:19:02.413Z,12.30
2022-12-25T18:21:29.620Z,12.20
2022-12-25T18:23:56.234Z,12.30
2022-12-25T18:26:23.264Z,12.50
2022-12-25T18:28:50.288Z,12.90
2022-12-25T18:31:22.052Z,12.80
2022-12-25T18:33:49.363Z,12.50
2022-12-25T18:36:20.006Z,12.40
2022-12-25T18:38:48.181Z,12.40
2022-12-25T18:41:15.145Z,12.50
2022-12-25T18:43:52.840Z,12.50
2022-12-25T18:46:22.299Z,12.50
2022-12-25T18:48:49.330Z,12.40
2022-12-25T18:51:15.990Z,12.40
2022-12-25T18:53:42.792Z,12.30
2022-12-25T18:56:12.464Z,12.30
2022-12-25T18:58:39.347Z,12.30
2022-12-25T19:01:17.377Z,12.30
2022-12-25T19:03:45.350Z,12.30
2022-12-25T19:06:20.208Z,12.20
2022-12-25T19:08:47.080Z,12.20
2022-12-25T19:11:14.233Z,12.20
2022-12-25T19:13:41.108Z,12.20
2022-12-25T19:16:07.984Z,12.20
2022-12-25T19:18:34.658Z,12.20
2022-12-25T19:21:02.918Z,12.20
2022-12-25T19:23:29.617Z,12.30
2022-12-25T19:25:56.330Z,12.30
2022-12-25T19:28:24.876Z,12.30
2022-12-25T19:30:53.794Z,12.30
2022-12-25T19:33:22.891Z,12.30
2022-12-25T19:35:49.963Z,12.30
2022-12-25T19:38:16.600Z,12.40
2022-12-25T19:40:59.921Z,12.30
2022-12-25T19:43:32.572Z,12.40
2022-12-25T19:46:00.313Z,12.40
2022-12-25T19:48:27.288Z,12.50
2022-12-25T19:50:54.635Z,12.40
2022-12-25T19:53:23.620Z,12.40
2022-12-25T19:55:52.366Z,12.30
2022-12-25T19:58:23.545Z,12.30
2022-12-25T20:01:01.342Z,12.30
2022-12-25T20:03:28.432Z,12.40
2022-12-25T20:05:56.422Z,12.40
2022-12-25T20:08:25.355Z,12.40
2022-12-25T20:10:52.402Z,12.40
2022-12-25T20:13:19.483Z,12.50
2022-12-25T20:15:46.832Z,12.50
2022-12-25T20:18:13.710Z,12.50
2022-12-25T20:20:40.361Z,12.60
2022-12-25T20:23:06.979Z,12.50
2022-12-25T20:25:33.584Z,12.60
2022-12-25T20:28:00.186Z,12.60
2022-12-25T20:30:26.791Z,12.70
2022-12-25T20:32:53.450Z,12.70
2022-12-25T20:35:20.082Z,12.70
2022-12-25T20:37:46.762Z,12.70
2022-12-25T20:40:13.517Z,12.80
2022-12-25T20:42:40.146Z,12.70
2022-12-25T20:45:07.512Z,12.70
2022-12-25T20:47:35.140Z,12.70
2022-12-25T20:50:02.250Z,12.70
2022-12-25T20:52:28.884Z,12.80
2022-12-25T20:54:55.643Z,12.80
2022-12-25T20:57:22.521Z,12.80
2022-12-25T20:59:49.483Z,12.80
2022-12-25T21:02:34.709Z,12.80
2022-12-25T21:05:03.964Z,12.80
2022-12-25T21:07:30.669Z,12.70
2022-12-25T21:09:57.285Z,12.80
2022-12-25T21:12:23.889Z,12.70
2022-12-25T21:14:50.624Z,12.70
2022-12-25T21:17:17.755Z,12.70
2022-12-25T21:19:44.422Z,12.80
2022-12-25T21:22:11.049Z,12.80
2022-12-25T21:24:37.717Z,12.80
2022-12-25T21:27:04.370Z,12.70
2022-12-25T21:29:31.083Z,12.70
2022-12-25T21:32:16.281Z,12.70
2022-12-25T21:34:42.904Z,12.70
2022-12-25T21:37:09.529Z,12.70
2022-12-25T21:39:36.135Z,12.80
2022-12-25T21:42:04.474Z,12.80
2022-12-25T21:44:31.285Z,12.80
2022-12-25T21:46:58.110Z,12.70
2022-12-25T21:49:43.650Z,12.80
2022-12-25T21:52:10.812Z,12.80
2022-12-25T21:54:37.688Z,12.70
2022-12-25T21:57:05.255Z,12.80
2022-12-25T21:59:31.868Z,12.80
2022-12-25T22:01:59.433Z,12.80
2022-12-25T22:04:26.491Z,12.70
2022-12-25T22:07:11.645Z,12.70
2022-12-25T22:09:38.271Z,12.70
2022-12-25T22:12:27.375Z,12.70
2022-12-25T22:15:03.010Z,12.60
2022-12-25T22:17:51.156Z,12.70
2022-12-25T22:20:30.618Z,12.70
2022-12-25T22:22:58.022Z,12.70
2022-12-25T22:25:24.781Z,12.70
2022-12-25T22:27:51.939Z,12.70
2022-12-25T22:30:21.363Z,12.60
2022-12-25T22:32:48.665Z,12.70
2022-12-25T22:35:16.208Z,12.70
2022-12-25T22:37:43.818Z,12.70
2022-12-25T22:40:16.410Z,12.80
2022-12-25T22:42:43.603Z,12.80
2022-12-25T22:45:11.431Z,12.70
2022-12-25T22:47:38.510Z,12.80
2022-12-25T22:50:06.755Z,12.70
2022-12-25T22:52:33.635Z,12.70
2022-12-25T22:55:00.337Z,12.80
2022-12-25T22:57:26.971Z,12.70
2022-12-25T22:59:53.855Z,12.70
2022-12-25T23:02:20.955Z,12.80
2022-12-25T23:04:47.877Z,12.80
2022-12-25T23:07:15.454Z,12.70
2022-12-25T23:09:43.118Z,12.70
2022-12-25T23:12:29.879Z,12.70
2022-12-25T23:14:57.537Z,12.70
2022-12-25T23:17:43.318Z,12.60
2022-12-25T23:20:28.817Z,12.60
2022-12-25T23:23:14.234Z,12.60
2022-12-25T23:25:59.597Z,12.60
2022-12-25T23:28:45.042Z,12.70
2022-12-25T23:31:11.725Z,12.60
2022-12-25T23:33:38.404Z,12.70
2022-12-25T23:36:05.619Z,12.70
2022-12-25T23:38:32.215Z,12.70
2022-12-25T23:40:58.897Z,12.80
2022-12-25T23:43:25.795Z,12.80
2022-12-25T23:45:52.757Z,12.80
2022-12-25T23:48:19.390Z,12.80
2022-12-25T23:50:46.009Z,12.90
2022-12-25T23:53:12.878Z,12.90
2022-12-25T23:55:42.007Z,12.90
2022-12-25T23:58:08.815Z,12.80
